Terminal Aerodrome Forecast
Issued by NWS Charleston, WV

Current Version | Previous Version | Text Only | Print | Product List | Glossary Off
Versions: 1 2 3 4 5 6 7 8 9 10 11 12 13 14 15 16 17 18 19 20 21 22 23 24 25 26 27 28 29

000
FTUS41 KRLX 271800 AAA
TAFEKN
TAF AMD
KEKN 271803Z 2718/2818 26011G17KT P6SM SCT025
     FM272000 26011G17KT P6SM VCTS SCT025CB BKN045
      TEMPO 2720/2722 3SM -TSRA BKN025CB
     FM272200 24010G15KT 5SM TSRA BR BKN045CB
     FM280000 23009KT 5SM TSRA BR BKN045CB
     FM280100 23008KT 6SM TSRA BR BKN045CB
     FM280300 23007KT P6SM BKN040
     FM280600 28010KT P6SM BKN035
     FM281600 29010KT P6SM VCTS BKN020CB=

USA.gov is the U.S. government's official web portal to all federal, state and local government web resources and services.